Pacific Dawn — 2AGH7 — position and weather

sailwx.info

Track history (hours):
 
Tides and Currents Weather Stations Pressure Air Temp Water Temp Dewpoint Dewpoint Depression Visibility Wind Speed Wind Dir Waves Ship Positions

Pacific Dawn

Last reported at 2014-Aug-23 03:26 UTC. Time now 2014-Aug-23 07:29 UTC.
Position S 27°26' E 153°04'.

Length 245 m; draft 8.4 m.

Type: Passenger vessel. MMSI: 235059368.

Date/timePositionNaut miles runAvg speedWind from/ knotsBaromVisibWave heightAir tempDewpointWater temp
2014-Aug-23 03:26S 27°26' E 153°04'0 0.0
2014-Aug-23 02:32S 27°26' E 153°04'0 0.0
2014-Aug-23 01:32S 27°26' E 153°04'0 0.0
2014-Aug-23 00:32S 27°26' E 153°04'0 0.0
2014-Aug-22 23:32S 27°26' E 153°04'0 0.0
2014-Aug-22 22:32S 27°26' E 153°04'0 0.0
2014-Aug-22 21:32S 27°26' E 153°04'0 0.0
2014-Aug-22 20:32S 27°26' E 153°04'0 0.0
2014-Aug-22 19:29S 27°26' E 153°04'4 4.6
2014-Aug-22 18:33S 27°25' E 153°09'1010.5
2014-Aug-22 17:33S 27°16' E 153°15'1413.5
2014-Aug-22 16:34S 27°03' E 153°18'1515.4
2014-Aug-22 15:34S 26°50' E 153°09'1110.6
2014-Aug-22 14:34S 26°41' E 153°16'1817.7
2014-Aug-22 13:33S 26°36' E 153°35'  
2014-Aug-16 10:07S 26°37' E 153°37'1016.9
2014-Aug-16 09:33S 26°39' E 153°27'1514.8
2014-Aug-16 08:33S 26°43' E 153°11'1414.0
2014-Aug-16 07:33S 26°57' E 153°13'1717.1
2014-Aug-16 06:33S 27°13' E 153°20'1514.6
2014-Aug-16 05:34S 27°24' E 153°09'5 5.4
2014-Aug-16 04:33S 27°27' E 153°04'0 0.1
2014-Aug-16 03:33S 27°26' E 153°04'0 0.0
2014-Aug-16 02:33S 27°26' E 153°04'0 0.0
2014-Aug-16 01:33S 27°26' E 153°04'0 0.0
2014-Aug-16 00:33S 27°26' E 153°04'0 0.0
2014-Aug-15 23:33S 27°26' E 153°04'0 0.0
2014-Aug-15 22:33S 27°26' E 153°04'0 0.0
2014-Aug-15 21:33S 27°26' E 153°04'0 0.0
2014-Aug-15 20:24S 27°26' E 153°04'0 0.0
2014-Aug-15 19:33S 27°26' E 153°04'4 3.8
2014-Aug-15 18:34S 27°25' E 153°08'10 9.5
2014-Aug-15 17:33S 27°17' E 153°14'1313.1
2014-Aug-15 16:33S 27°05' E 153°18'1616.3
2014-Aug-15 15:33S 26°51' E 153°09'1211.6
2014-Aug-15 14:33S 26°41' E 153°17'1414.2
2014-Aug-15 13:33S 26°37' E 153°32'  
Track history (hours):
 
Tides and Currents Weather Stations Pressure Air Temp Water Temp Dewpoint Dewpoint Depression Visibility Wind Speed Wind Dir Waves Ship Positions

Pacific Dawn

Last reported at 2014-Aug-23 03:26 UTC. Time now 2014-Aug-23 07:29 UTC.
Position S 27°26' E 153°04'.

Length 245 m; draft 8.4 m.

Type: Passenger vessel. MMSI: 235059368.

Date/timePositionNaut miles runAvg speedWind from/ knotsBaromVisibWave heightAir tempDewpointWater temp
2014-Aug-23 03:26S 27°26' E 153°04'0 0.0
2014-Aug-23 02:32S 27°26' E 153°04'0 0.0
2014-Aug-23 01:32S 27°26' E 153°04'0 0.0
2014-Aug-23 00:32S 27°26' E 153°04'0 0.0
2014-Aug-22 23:32S 27°26' E 153°04'0 0.0
2014-Aug-22 22:32S 27°26' E 153°04'0 0.0
2014-Aug-22 21:32S 27°26' E 153°04'0 0.0
2014-Aug-22 20:32S 27°26' E 153°04'0 0.0
2014-Aug-22 19:29S 27°26' E 153°04'4 4.6
2014-Aug-22 18:33S 27°25' E 153°09'1010.5
2014-Aug-22 17:33S 27°16' E 153°15'1413.5
2014-Aug-22 16:34S 27°03' E 153°18'1515.4
2014-Aug-22 15:34S 26°50' E 153°09'1110.6
2014-Aug-22 14:34S 26°41' E 153°16'1817.7
2014-Aug-22 13:33S 26°36' E 153°35'  
2014-Aug-16 10:07S 26°37' E 153°37'1016.9
2014-Aug-16 09:33S 26°39' E 153°27'1514.8
2014-Aug-16 08:33S 26°43' E 153°11'1414.0
2014-Aug-16 07:33S 26°57' E 153°13'1717.1
2014-Aug-16 06:33S 27°13' E 153°20'1514.6
2014-Aug-16 05:34S 27°24' E 153°09'5 5.4
2014-Aug-16 04:33S 27°27' E 153°04'0 0.1
2014-Aug-16 03:33S 27°26' E 153°04'0 0.0
2014-Aug-16 02:33S 27°26' E 153°04'0 0.0
2014-Aug-16 01:33S 27°26' E 153°04'0 0.0
2014-Aug-16 00:33S 27°26' E 153°04'0 0.0
2014-Aug-15 23:33S 27°26' E 153°04'0 0.0
2014-Aug-15 22:33S 27°26' E 153°04'0 0.0
2014-Aug-15 21:33S 27°26' E 153°04'0 0.0
2014-Aug-15 20:24S 27°26' E 153°04'0 0.0
2014-Aug-15 19:33S 27°26' E 153°04'4 3.8
2014-Aug-15 18:34S 27°25' E 153°08'10 9.5
2014-Aug-15 17:33S 27°17' E 153°14'1313.1
2014-Aug-15 16:33S 27°05' E 153°18'1616.3
2014-Aug-15 15:33S 26°51' E 153°09'1211.6
2014-Aug-15 14:33S 26°41' E 153°17'1414.2
2014-Aug-15 13:33S 26°37' E 153°32'  

Dump ship's entire track history